Time;durP1;ratioP1;P1;durP2;ratioP2;P2;SDS_P1;SDS_P2;PMS_P1;PMS_P2;Temp;Humidity;BMP_temperature;BMP_pressure;BME280_temperature;BME280_humidity;BME280_pressure;Samples;Min_cycle;Max_cycle;Signal;HPM_P1;HPM_P2
2023/04/15 00:01:57;;;;;;;1.55;1.12;;;;;;;9.30;66.12;98508.56;4485465;31;33436;-63
2023/04/15 00:04:26;;;;;;;1.33;1.05;;;;;;;8.79;68.34;98515.69;4494011;31;33843;-64
2023/04/15 00:06:54;;;;;;;1.83;1.55;;;;;;;9.61;65.37;98505.81;4493050;31;32650;-63
2023/04/15 00:09:22;;;;;;;1.75;1.45;;;;;;;9.76;64.85;98512.47;4489975;31;33088;-64
2023/04/15 00:11:50;;;;;;;2.58;1.83;;;;;;;9.31;66.87;98507.59;4499218;31;34742;-66
2023/04/15 00:14:18;;;;;;;9.60;2.60;;;;;;;9.67;65.08;98511.47;4493125;31;33891;-65
2023/04/15 00:16:45;;;;;;;2.00;1.80;;;;;;;8.44;69.44;98512.56;4496598;31;33533;-66
2023/04/15 00:19:13;;;;;;;1.10;1.00;;;;;;;8.55;69.16;98513.34;4494936;31;33408;-65
2023/04/15 00:21:40;;;;;;;3.30;2.05;;;;;;;8.50;69.10;98520.03;4493553;31;33732;-66
2023/04/15 00:24:08;;;;;;;1.77;1.62;;;;;;;9.31;66.36;98523.63;4494850;31;34174;-64
2023/04/15 00:26:35;;;;;;;2.05;1.87;;;;;;;9.01;67.70;98517.31;4484861;31;33841;-64
2023/04/15 00:29:03;;;;;;;2.33;2.08;;;;;;;9.35;67.10;98518.84;4491820;31;34243;-65
2023/04/15 00:31:31;;;;;;;1.27;1.12;;;;;;;9.21;66.81;98515.59;4490289;31;34907;-64
2023/04/15 00:33:59;;;;;;;1.20;1.08;;;;;;;9.87;64.48;98506.97;4491413;31;33792;-66
2023/04/15 00:36:27;;;;;;;2.30;2.00;;;;;;;9.58;65.24;98506.94;4489642;31;34954;-64
2023/04/15 00:38:54;;;;;;;1.55;1.27;;;;;;;9.06;66.89;98507.09;4490355;31;33353;-65
2023/04/15 00:41:22;;;;;;;6.82;2.58;;;;;;;9.39;66.79;98506.91;4491791;31;32416;-64
2023/04/15 00:43:49;;;;;;;1.25;1.15;;;;;;;10.07;64.31;98504.28;4494044;31;35124;-65
2023/04/15 00:46:19;;;;;;;2.62;2.20;;;;;;;9.81;64.87;98507.53;4493294;31;35391;-67
2023/04/15 00:48:47;;;;;;;1.75;1.35;;;;;;;9.76;65.23;98505.28;4481288;31;33235;-65
2023/04/15 00:51:15;;;;;;;1.98;1.70;;;;;;;9.74;65.11;98509.06;4484079;31;32378;-64
2023/04/15 00:53:42;;;;;;;1.17;1.05;;;;;;;10.25;63.28;98515.97;4494813;31;35510;-64
2023/04/15 00:56:10;;;;;;;2.00;1.40;;;;;;;10.33;62.80;98510.75;4491883;31;33585;-65
2023/04/15 00:58:37;;;;;;;1.27;1.10;;;;;;;10.24;62.54;98501.75;4482757;31;34370;-65
2023/04/15 01:01:05;;;;;;;1.15;1.05;;;;;;;10.29;62.68;98508.53;4491381;31;33575;-65
2023/04/15 01:03:33;;;;;;;2.25;1.87;;;;;;;10.86;60.85;98498.66;4487291;31;34664;-67
2023/04/15 01:06:02;;;;;;;3.78;2.20;;;;;;;10.61;61.92;98500.16;4487099;31;33566;-68
2023/04/15 01:08:30;;;;;;;3.60;1.37;;;;;;;10.79;61.07;98503.75;4493254;31;33334;-65
2023/04/15 01:11:01;;;;;;;2.58;2.15;;;;;;;10.68;61.25;98496.72;4480944;31;34831;-64
2023/04/15 01:13:29;;;;;;;2.70;1.52;;;;;;;11.08;59.75;98492.09;4492975;31;34336;-65
2023/04/15 01:15:57;;;;;;;3.12;2.40;;;;;;;10.80;60.51;98497.41;4495772;31;33397;-64
2023/04/15 01:18:25;;;;;;;1.95;1.80;;;;;;;10.80;60.77;98501.94;4482597;31;32676;-63
2023/04/15 01:20:52;;;;;;;0.98;0.95;;;;;;;10.55;61.63;98492.69;4487215;31;33922;-64
2023/04/15 01:23:23;;;;;;;3.00;2.47;;;;;;;10.75;61.29;98494.31;4493666;31;33218;-63
2023/04/15 01:25:52;;;;;;;2.83;2.20;;;;;;;10.44;62.53;98493.72;4496201;31;34006;-64
2023/04/15 01:28:20;;;;;;;2.20;1.65;;;;;;;10.75;61.49;98488.97;4480589;31;33445;-64
2023/04/15 01:30:48;;;;;;;1.12;1.02;;;;;;;10.57;62.38;98491.56;4486566;31;34977;-67
2023/04/15 01:33:15;;;;;;;1.05;0.95;;;;;;;10.41;62.44;98500.19;4482200;31;34179;-66
2023/04/15 01:36:07;;;;;;;4.62;2.25;;;;;;;10.08;63.99;98503.28;4485949;31;33793;-65
2023/04/15 01:38:36;;;;;;;1.67;1.20;;;;;;;10.59;61.62;98500.28;4486779;31;33436;-67
2023/04/15 01:41:03;;;;;;;2.78;2.15;;;;;;;11.24;60.08;98502.16;4488190;31;33687;-67
2023/04/15 01:43:35;;;;;;;1.45;1.25;;;;;;;10.70;61.94;98507.31;4485360;31;33786;-64
2023/04/15 01:46:05;;;;;;;2.42;1.92;;;;;;;10.70;62.17;98507.31;4496253;31;33730;-65
2023/04/15 01:48:33;;;;;;;1.40;1.30;;;;;;;10.76;61.62;98503.22;4492513;31;33036;-63
2023/04/15 01:51:04;;;;;;;2.53;1.20;;;;;;;11.31;59.99;98509.44;4489406;31;33839;-64
2023/04/15 01:53:33;;;;;;;3.40;1.90;;;;;;;11.47;59.50;98510.62;4488730;31;34545;-65
2023/04/15 01:56:03;;;;;;;2.50;1.37;;;;;;;11.60;59.06;98513.78;4484244;31;33793;-64
2023/04/15 01:58:32;;;;;;;3.15;1.95;;;;;;;11.31;59.88;98506.75;4491682;31;34109;-64
2023/04/15 02:01:01;;;;;;;12.82;1.98;;;;;;;11.57;59.18;98516.75;4484017;31;34017;-61
2023/04/15 02:03:32;;;;;;;1.70;1.35;;;;;;;11.64;58.74;98510.62;4490264;31;33509;-63
2023/04/15 02:06:01;;;;;;;6.87;1.95;;;;;;;11.56;58.82;98512.41;4480098;31;33896;-63
2023/04/15 02:08:30;;;;;;;4.85;2.45;;;;;;;11.52;59.22;98508.31;4487830;31;33382;-63
2023/04/15 02:11:00;;;;;;;6.12;1.12;;;;;;;11.60;58.79;98513.78;4481431;31;32403;-61
2023/04/15 02:13:29;;;;;;;3.70;2.00;;;;;;;11.55;59.37;98522.25;4492906;31;33366;-62
2023/04/15 02:15:58;;;;;;;0.75;0.75;;;;;;;11.69;58.67;98507.53;4496862;31;33884;-64
2023/04/15 02:18:27;;;;;;;1.00;1.00;;;;;;;11.40;59.48;98508.53;4491362;31;33437;-61
2023/04/15 02:20:57;;;;;;;2.15;1.87;;;;;;;11.50;59.58;98511.16;4496355;31;33420;-63
2023/04/15 02:23:26;;;;;;;1.50;0.90;;;;;;;11.64;59.01;98510.62;4494822;31;33890;-61
2023/04/15 02:25:55;;;;;;;3.40;2.42;;;;;;;10.77;62.07;98515.59;4486464;31;33721;-61
2023/04/15 02:28:24;;;;;;;4.80;1.85;;;;;;;10.30;63.75;98508.38;4492737;31;34188;-63
2023/04/15 02:30:56;;;;;;;1.12;0.95;;;;;;;10.57;62.51;98512.97;4487293;31;33709;-62
2023/04/15 02:33:24;;;;;;;3.97;1.80;;;;;;;11.12;61.42;98509.53;4490725;31;34199;-62
2023/04/15 02:35:53;;;;;;;2.05;1.48;;;;;;;10.88;61.74;98518.06;4494939;31;33749;-62
2023/04/15 02:38:22;;;;;;;2.37;1.77;;;;;;;11.60;59.84;98516.47;4488161;31;34078;-62
2023/04/15 02:40:51;;;;;;;1.30;1.20;;;;;;;11.88;58.91;98520.81;4498556;31;32560;-64
2023/04/15 02:43:20;;;;;;;2.22;1.45;;;;;;;11.52;59.62;98529.75;4494673;31;33798;-61
2023/04/15 02:45:51;;;;;;;3.70;1.83;;;;;;;10.94;62.18;98520.16;4495110;31;33813;-65
2023/04/15 02:48:21;;;;;;;3.33;2.10;;;;;;;11.73;59.62;98519.62;4489027;31;32098;-62
2023/04/15 02:50:50;;;;;;;2.87;1.17;;;;;;;11.34;60.10;98514.50;4497104;31;35123;-64
2023/04/15 02:53:20;;;;;;;0.93;0.88;;;;;;;11.39;60.18;98511.34;4490821;31;34614;-62
2023/04/15 02:55:48;;;;;;;1.12;0.80;;;;;;;11.15;61.40;98511.94;4494839;31;32507;-64
2023/04/15 02:58:17;;;;;;;1.55;1.23;;;;;;;11.06;61.41;98516.31;4494511;31;33162;-63
2023/04/15 03:00:46;;;;;;;3.97;3.05;;;;;;;11.54;59.79;98506.34;4492207;31;33835;-62
2023/04/15 03:03:15;;;;;;;1.40;1.30;;;;;;;11.22;61.31;98504.12;4495105;31;33891;-61
2023/04/15 03:05:44;;;;;;;2.90;1.33;;;;;;;11.51;60.26;98504.81;4496637;31;34368;-61
2023/04/15 03:08:13;;;;;;;4.03;2.35;;;;;;;11.50;60.28;98500.44;4484044;31;33742;-62
2023/04/15 03:10:42;;;;;;;1.73;1.15;;;;;;;11.77;59.46;98509.44;4496945;31;33619;-62
2023/04/15 03:13:11;;;;;;;4.18;2.45;;;;;;;11.51;60.34;98509.31;4489715;31;33892;-61
2023/04/15 03:15:40;;;;;;;2.15;1.73;;;;;;;11.21;61.37;98511.34;4484809;31;33988;-62
2023/04/15 03:18:09;;;;;;;4.57;2.42;;;;;;;11.61;59.98;98504.75;4491262;31;33161;-63
2023/04/15 03:20:38;;;;;;;3.20;1.90;;;;;;;11.72;59.71;98506.34;4490530;31;33552;-63
2023/04/15 03:23:07;;;;;;;2.97;1.37;;;;;;;11.58;59.37;98507.72;4488154;31;34667;-61
2023/04/15 03:25:36;;;;;;;3.12;2.53;;;;;;;11.85;59.24;98506.87;4497688;31;34275;-63
2023/04/15 03:28:05;;;;;;;5.25;1.58;;;;;;;11.81;59.20;98505.44;4492067;31;32036;-62
2023/04/15 03:30:34;;;;;;;1.65;1.50;;;;;;;11.72;59.52;98511.72;4493868;31;33565;-63
2023/04/15 03:33:03;;;;;;;1.58;1.30;;;;;;;11.72;59.61;98507.22;4488772;31;33748;-62
2023/04/15 03:35:32;;;;;;;2.58;1.67;;;;;;;11.84;59.10;98502.44;4487315;31;33558;-63
2023/04/15 03:38:01;;;;;;;2.58;1.27;;;;;;;11.69;59.66;98512.03;4481844;31;33174;-63
2023/04/15 03:40:30;;;;;;;3.10;0.98;;;;;;;11.72;59.74;98501.84;4493005;31;33733;-62
2023/04/15 03:42:59;;;;;;;1.58;1.40;;;;;;;11.92;59.39;98499.91;4497795;31;33198;-62
2023/04/15 03:45:28;;;;;;;2.97;1.83;;;;;;;11.91;58.89;98498.22;4494604;31;34471;-61
2023/04/15 03:47:57;;;;;;;3.22;2.12;;;;;;;11.66;59.71;98505.97;4493232;31;33284;-62
2023/04/15 03:50:44;;;;;;;3.15;2.28;;;;;;;11.76;59.38;98494.34;4485001;31;33627;-62
2023/04/15 03:53:14;;;;;;;2.60;2.40;;;;;;;11.14;61.81;98502.22;4489201;31;33740;-62
2023/04/15 03:55:43;;;;;;;2.65;2.00;;;;;;;11.41;61.27;98509.38;4494412;31;34507;-61
2023/04/15 03:58:12;;;;;;;16.67;2.95;;;;;;;11.62;60.61;98509.09;4492547;31;33354;-61
2023/04/15 04:00:41;;;;;;;3.28;2.42;;;;;;;11.48;61.04;98502.44;4495575;31;34516;-63
2023/04/15 04:03:10;;;;;;;2.25;1.58;;;;;;;11.57;60.53;98498.84;4491547;31;35561;-63
2023/04/15 04:05:40;;;;;;;2.72;2.25;;;;;;;11.32;61.57;98499.56;4496257;31;33666;-62
2023/04/15 04:08:09;;;;;;;1.23;0.95;;;;;;;11.37;61.33;98497.28;4494896;31;32968;-61
2023/04/15 04:10:38;;;;;;;2.10;1.35;;;;;;;10.70;63.30;98499.28;4494921;31;33588;-62
2023/04/15 04:13:07;;;;;;;2.00;1.73;;;;;;;10.88;63.73;98499.34;4484473;31;35141;-63
2023/04/15 04:15:36;;;;;;;3.00;1.37;;;;;;;11.46;61.12;98500.88;4491200;31;33653;-62
2023/04/15 04:18:05;;;;;;;4.22;2.92;;;;;;;11.43;61.03;98500.22;4493751;31;33376;-63
2023/04/15 04:20:34;;;;;;;4.25;2.62;;;;;;;11.70;60.49;98508.34;4494648;31;35633;-62
2023/04/15 04:23:03;;;;;;;2.83;2.05;;;;;;;11.72;60.44;98501.84;4485342;31;34143;-61
2023/04/15 04:25:32;;;;;;;4.03;2.22;;;;;;;11.09;62.08;98510.69;4496946;31;33901;-61
2023/04/15 04:28:00;;;;;;;3.62;2.40;;;;;;;11.55;61.44;98516.06;4486727;31;33623;-60
2023/04/15 04:30:29;;;;;;;3.15;2.05;;;;;;;10.67;63.63;98512.94;4496678;31;33698;-62
2023/04/15 04:32:58;;;;;;;5.78;2.45;;;;;;;11.55;61.17;98506.19;4489028;31;34268;-61
2023/04/15 04:35:27;;;;;;;1.98;1.60;;;;;;;11.99;59.93;98503.62;4482065;31;33646;-60
2023/04/15 04:37:56;;;;;;;4.72;2.20;;;;;;;12.02;59.50;98511.38;4485249;31;34093;-61
2023/04/15 04:40:25;;;;;;;3.72;2.97;;;;;;;11.65;60.22;98514.16;4497590;31;34926;-61
2023/04/15 04:42:53;;;;;;;3.05;2.20;;;;;;;11.51;60.81;98509.31;4494230;31;32834;-61
2023/04/15 04:45:22;;;;;;;2.83;1.60;;;;;;;11.00;62.50;98514.22;4497259;31;34443;-63
2023/04/15 04:47:51;;;;;;;1.73;1.20;;;;;;;11.16;62.72;98508.25;4489258;31;33006;-64
2023/04/15 04:50:20;;;;;;;4.18;2.05;;;;;;;11.36;62.06;98509.84;4487971;31;33515;-64
2023/04/15 04:52:49;;;;;;;1.85;1.65;;;;;;;11.23;62.48;98513.84;4490852;31;34904;-64
2023/04/15 04:55:18;;;;;;;6.03;2.33;;;;;;;11.39;62.36;98508.69;4495165;31;33606;-63
2023/04/15 04:57:47;;;;;;;3.10;2.05;;;;;;;11.82;61.06;98507.97;4488224;31;33403;-63
2023/04/15 05:00:16;;;;;;;1.45;1.30;;;;;;;11.74;61.51;98505.22;4487013;31;33963;-63
2023/04/15 05:02:45;;;;;;;1.92;1.37;;;;;;;11.98;60.55;98507.31;4492633;31;34767;-64
2023/04/15 05:05:14;;;;;;;2.37;1.30;;;;;;;11.38;62.71;98515.03;4492672;31;33720;-64
2023/04/15 05:07:42;;;;;;;2.00;1.48;;;;;;;11.69;61.76;98512.88;4489529;31;31901;-63
2023/04/15 05:10:13;;;;;;;2.58;2.12;;;;;;;11.56;62.49;98515.94;4495574;31;34105;-64
2023/04/15 05:12:42;;;;;;;5.25;2.35;;;;;;;10.83;64.63;98515.84;4489289;31;33235;-63
2023/04/15 05:15:11;;;;;;;2.22;1.92;;;;;;;10.90;64.57;98516.94;4491261;31;32430;-63
2023/04/15 05:17:40;;;;;;;3.50;2.08;;;;;;;11.21;64.05;98515.84;4493304;31;33093;-60
2023/04/15 05:20:09;;;;;;;1.92;1.37;;;;;;;11.77;62.08;98515.63;4494382;31;33915;-60
2023/04/15 05:22:38;;;;;;;5.22;3.37;;;;;;;11.13;64.05;98517.41;4494362;31;32604;-61
2023/04/15 05:25:07;;;;;;;3.53;1.95;;;;;;;11.56;62.62;98517.75;4495962;31;33836;-61
2023/04/15 05:27:36;;;;;;;2.85;2.03;;;;;;;11.55;63.01;98516.91;4492815;31;32989;-62
2023/04/15 05:30:06;;;;;;;3.10;1.67;;;;;;;11.05;64.57;98520.00;4495903;31;33815;-62
2023/04/15 05:32:35;;;;;;;0.93;0.80;;;;;;;10.93;64.46;98516.66;4489141;31;33463;-63
2023/04/15 05:35:04;;;;;;;3.60;1.98;;;;;;;11.49;63.40;98527.38;4493398;31;32686;-62
2023/04/15 05:37:33;;;;;;;1.75;1.48;;;;;;;11.70;62.38;98527.97;4490076;31;33323;-62
2023/04/15 05:40:03;;;;;;;4.47;2.30;;;;;;;10.92;64.87;98535.56;4491311;31;33673;-61
2023/04/15 05:42:32;;;;;;;4.10;2.45;;;;;;;11.33;63.83;98531.56;4492555;31;33721;-63
2023/04/15 05:45:04;;;;;;;2.53;1.55;;;;;;;11.63;62.97;98535.75;4494114;31;34157;-64
2023/04/15 05:47:33;;;;;;;3.35;1.75;;;;;;;11.92;62.10;98537.44;4487069;31;33232;-64
2023/04/15 05:50:02;;;;;;;1.55;1.25;;;;;;;10.71;64.83;98541.09;4494475;31;34162;-62
2023/04/15 05:52:30;;;;;;;2.35;1.90;;;;;;;10.84;65.42;98536.25;4488640;31;35071;-62
2023/04/15 05:54:59;;;;;;;3.03;2.35;;;;;;;11.48;64.34;98539.09;4487422;31;34371;-63
2023/04/15 05:57:28;;;;;;;3.85;2.35;;;;;;;11.01;64.36;98528.47;4487885;31;33458;-63
2023/04/15 05:59:57;;;;;;;4.93;3.15;;;;;;;11.75;63.53;98541.75;4493382;31;33769;-63
2023/04/15 06:02:26;;;;;;;3.55;1.62;;;;;;;12.30;60.93;98538.97;4495081;31;34030;-62
2023/04/15 06:04:56;;;;;;;8.10;2.28;;;;;;;12.53;61.21;98552.72;4489367;31;34552;-61
2023/04/15 06:07:25;;;;;;;4.35;2.28;;;;;;;12.70;61.29;98556.34;4498942;31;33073;-62
2023/04/15 06:09:54;;;;;;;4.95;2.80;;;;;;;12.32;61.88;98555.72;4487363;31;33569;-63
2023/04/15 06:12:23;;;;;;;11.43;2.70;;;;;;;12.20;62.81;98556.97;4491682;31;33901;-61
2023/04/15 06:14:51;;;;;;;4.12;2.92;;;;;;;12.12;62.93;98559.56;4489878;31;34226;-64
2023/04/15 06:17:20;;;;;;;2.70;1.77;;;;;;;12.28;62.72;98556.19;4486873;31;33816;-62
2023/04/15 06:19:54;;;;;;;1.83;1.62;;;;;;;12.11;62.72;98561.41;4490618;31;34122;-62
2023/04/15 06:22:23;;;;;;;3.03;2.30;;;;;;;12.33;61.27;98559.28;4495173;31;33932;-62
2023/04/15 06:24:52;;;;;;;2.60;1.77;;;;;;;13.00;60.50;98563.13;4485706;31;34141;-62
2023/04/15 06:27:21;;;;;;;3.30;2.10;;;;;;;12.25;61.64;98560.03;4492507;31;33522;-62
2023/04/15 06:29:50;;;;;;;2.53;1.85;;;;;;;12.77;60.94;98552.03;4490606;31;33313;-61
2023/04/15 06:32:19;;;;;;;2.75;1.95;;;;;;;12.46;61.97;98548.97;4489685;31;35067;-61
2023/04/15 06:34:48;;;;;;;2.78;2.28;;;;;;;11.46;63.04;98562.50;4492135;31;33501;-62
2023/04/15 06:37:17;;;;;;;2.72;1.95;;;;;;;12.06;62.76;98560.19;4491050;31;33640;-61
2023/04/15 06:39:46;;;;;;;5.50;2.33;;;;;;;12.25;62.29;98569.91;4487294;31;33835;-64
2023/04/15 06:42:15;;;;;;;5.78;3.80;;;;;;;12.11;62.27;98563.25;4492525;31;33589;-62
2023/04/15 06:44:43;;;;;;;4.93;3.45;;;;;;;12.13;62.40;98569.28;4494550;31;34442;-63
2023/04/15 06:47:13;;;;;;;2.17;1.45;;;;;;;12.01;62.65;98567.87;4487125;31;31981;-66
2023/04/15 06:49:42;;;;;;;3.80;2.40;;;;;;;12.71;61.53;98558.06;4492052;31;33640;-61
2023/04/15 06:52:11;;;;;;;8.80;3.97;;;;;;;13.01;60.60;98564.78;4489118;31;34235;-64
2023/04/15 06:54:40;;;;;;;5.57;2.37;;;;;;;13.13;59.52;98556.44;4492403;31;33553;-62
2023/04/15 06:57:09;;;;;;;5.22;2.75;;;;;;;13.09;59.79;98561.28;4488477;31;33402;-61
2023/04/15 06:59:38;;;;;;;6.60;3.50;;;;;;;12.47;59.97;98558.69;4490595;31;33265;-61
2023/04/15 07:02:10;;;;;;;3.75;2.70;;;;;;;12.48;59.70;98567.59;4488221;31;33773;-63
2023/04/15 07:04:39;;;;;;;3.40;2.42;;;;;;;12.44;60.87;98572.44;4493635;31;32917;-63
2023/04/15 07:07:08;;;;;;;3.92;2.25;;;;;;;12.00;61.11;98572.34;4493970;31;33249;-63
2023/04/15 07:09:37;;;;;;;2.40;2.05;;;;;;;12.18;60.49;98569.69;4497100;31;33936;-61
2023/04/15 07:12:06;;;;;;;1.85;1.05;;;;;;;12.55;58.58;98574.03;4491712;31;34274;-62
2023/04/15 07:14:35;;;;;;;10.18;3.03;;;;;;;12.96;57.58;98568.94;4499912;31;34459;-62
2023/04/15 07:17:04;;;;;;;3.12;1.90;;;;;;;13.50;56.68;98569.59;4490928;31;32563;-62
2023/04/15 07:19:32;;;;;;;2.10;1.95;;;;;;;13.02;57.33;98569.16;4496991;31;33392;-63
2023/04/15 07:22:02;;;;;;;4.40;3.58;;;;;;;13.48;55.59;98580.53;4492330;31;35102;-62
2023/04/15 07:24:31;;;;;;;3.83;2.20;;;;;;;13.15;54.96;98576.78;4493037;31;33735;-63
2023/04/15 07:27:00;;;;;;;3.50;2.12;;;;;;;13.37;55.25;98578.09;4495688;31;34154;-62
2023/04/15 07:29:30;;;;;;;3.53;1.70;;;;;;;12.00;58.07;98583.09;4492897;31;32828;-62
2023/04/15 07:31:59;;;;;;;8.75;1.92;;;;;;;12.53;57.16;98592.97;4488283;31;33458;-64
2023/04/15 07:34:27;;;;;;;2.05;1.35;;;;;;;12.54;56.87;98583.91;4484350;31;33407;-63
2023/04/15 07:36:59;;;;;;;5.32;2.17;;;;;;;12.72;56.62;98589.28;4492959;31;33890;-65
2023/04/15 07:39:28;;;;;;;4.70;2.70;;;;;;;12.68;56.30;98582.53;4492556;31;34607;-64
2023/04/15 07:41:57;;;;;;;2.85;1.90;;;;;;;11.84;57.70;98588.25;4495839;31;34710;-64
2023/04/15 07:44:26;;;;;;;5.97;2.67;;;;;;;11.14;59.47;98594.09;4489640;31;34474;-62
2023/04/15 07:46:56;;;;;;;3.47;2.53;;;;;;;11.05;60.71;98589.63;4487373;31;33208;-64
2023/04/15 07:49:24;;;;;;;2.85;2.35;;;;;;;11.39;60.69;98592.56;4493553;31;34047;-62
2023/04/15 07:51:53;;;;;;;3.50;1.77;;;;;;;11.22;61.64;98588.00;4491117;31;32706;-65
2023/04/15 07:54:22;;;;;;;5.60;4.00;;;;;;;11.42;61.41;98596.78;4492064;31;33349;-64
2023/04/15 07:56:51;;;;;;;5.07;3.17;;;;;;;11.56;61.34;98596.31;4496043;31;33250;-62
2023/04/15 07:59:20;;;;;;;4.95;3.10;;;;;;;11.45;60.29;98587.62;4491425;31;33507;-62
2023/04/15 08:01:49;;;;;;;5.37;3.40;;;;;;;11.45;61.20;98593.81;4492619;31;33481;-62
2023/04/15 08:04:18;;;;;;;2.53;1.80;;;;;;;12.12;58.76;98595.28;4486775;31;34710;-63
2023/04/15 08:06:49;;;;;;;2.95;2.03;;;;;;;11.55;61.22;98599.13;4494846;31;33227;-63
2023/04/15 08:09:18;;;;;;;5.37;3.03;;;;;;;11.93;60.19;98606.16;4489262;31;33746;-63
2023/04/15 08:11:50;;;;;;;1.65;1.25;;;;;;;10.83;61.63;98611.38;4485553;31;33635;-62
2023/04/15 08:14:19;;;;;;;2.72;2.15;;;;;;;10.95;63.54;98608.38;4493225;31;33614;-64
2023/04/15 08:16:48;;;;;;;3.45;1.87;;;;;;;11.30;63.63;98604.19;4496972;31;33463;-61
2023/04/15 08:19:17;;;;;;;1.45;1.10;;;;;;;11.25;64.30;98601.09;4496215;31;33475;-63
2023/04/15 08:21:46;;;;;;;1.98;1.58;;;;;;;12.09;63.05;98610.84;4495589;31;34588;-63
2023/04/15 08:24:14;;;;;;;3.58;1.58;;;;;;;12.42;60.04;98603.94;4488830;31;34558;-63
2023/04/15 08:26:43;;;;;;;3.60;1.30;;;;;;;12.20;60.08;98607.94;4495021;31;31998;-63
2023/04/15 08:29:12;;;;;;;2.75;1.85;;;;;;;11.90;59.55;98609.13;4495015;31;33210;-65
2023/04/15 08:31:41;;;;;;;0.75;0.70;;;;;;;11.73;60.21;98615.28;4487401;31;32775;-65
2023/04/15 08:34:12;;;;;;;1.10;0.90;;;;;;;12.82;56.65;98616.84;4500134;31;36577;-63
2023/04/15 08:36:41;;;;;;;1.20;0.77;;;;;;;11.87;58.07;98620.16;4498368;31;33100;-62
2023/04/15 08:39:10;;;;;;;1.02;0.95;;;;;;;11.56;59.31;98628.47;4494839;31;32628;-62
2023/04/15 08:41:46;;;;;;;0.85;0.75;;;;;;;11.76;58.51;98623.03;4488196;31;33825;-63
2023/04/15 08:44:16;;;;;;;1.10;0.98;;;;;;;11.70;57.94;98620.94;4487198;31;33731;-64
2023/04/15 08:46:46;;;;;;;1.87;0.98;;;;;;;12.11;57.87;98616.91;4488736;31;33140;-64
2023/04/15 08:49:16;;;;;;;0.52;0.52;;;;;;;11.91;58.17;98618.88;4492038;31;33761;-62
2023/04/15 08:51:46;;;;;;;2.28;1.05;;;;;;;11.85;59.18;98620.31;4494219;31;32288;-62
2023/04/15 08:54:15;;;;;;;0.62;0.62;;;;;;;12.06;57.92;98617.34;4491534;31;33960;-62
2023/04/15 08:56:43;;;;;;;0.75;0.75;;;;;;;12.80;56.92;98624.22;4495426;31;34226;-63
2023/04/15 08:59:12;;;;;;;1.55;1.27;;;;;;;12.37;57.33;98621.50;4497766;31;33880;-63
2023/04/15 09:01:42;;;;;;;2.55;0.95;;;;;;;12.57;56.42;98609.59;4491205;31;35290;-63
2023/04/15 09:04:11;;;;;;;2.05;1.27;;;;;;;12.79;56.45;98622.53;4493800;31;33909;-65
2023/04/15 09:06:40;;;;;;;5.43;1.85;;;;;;;12.91;57.01;98625.00;4494711;31;33242;-63
2023/04/15 09:09:09;;;;;;;2.67;1.60;;;;;;;12.27;58.16;98625.12;4497278;31;33687;-62
2023/04/15 09:11:38;;;;;;;2.67;1.58;;;;;;;12.10;59.83;98628.59;4494995;31;33959;-64
2023/04/15 09:14:07;;;;;;;2.47;1.73;;;;;;;11.64;61.52;98630.41;4483957;31;33566;-62
2023/04/15 09:17:02;;;;;;;1.37;1.25;;;;;;;11.63;62.99;98628.72;4486160;31;32126;-62
2023/04/15 09:19:32;;;;;;;1.55;1.33;;;;;;;11.64;63.58;98628.56;4486429;31;33654;-62
2023/04/15 09:22:01;;;;;;;3.05;1.33;;;;;;;11.69;62.02;98625.44;4494186;31;34865;-61
2023/04/15 09:24:37;;;;;;;3.08;1.50;;;;;;;12.23;60.43;98628.22;4485560;31;33758;-63
2023/04/15 09:27:06;;;;;;;1.75;1.05;;;;;;;11.85;61.34;98631.03;4486012;31;32036;-64
2023/04/15 09:29:35;;;;;;;2.50;1.50;;;;;;;11.84;62.51;98626.66;4487708;31;33530;-64
2023/04/15 09:32:15;;;;;;;1.80;0.95;;;;;;;11.97;59.19;98630.81;4488948;31;32518;-63
2023/04/15 09:34:44;;;;;;;1.25;1.12;;;;;;;12.06;57.50;98625.38;4491356;31;32629;-62
2023/04/15 09:37:17;;;;;;;0.80;0.80;;;;;;;11.81;58.31;98635.00;4488399;31;34112;-63
2023/04/15 09:39:59;;;;;;;1.17;0.77;;;;;;;11.42;60.36;98639.66;4490585;31;34477;-62
2023/04/15 09:42:28;;;;;;;0.93;0.90;;;;;;;11.64;60.67;98633.09;4491854;31;33733;-63
2023/04/15 09:45:07;;;;;;;1.37;0.75;;;;;;;11.37;60.35;98637.44;4491452;31;33821;-63
2023/04/15 09:47:37;;;;;;;2.30;1.40;;;;;;;10.98;61.58;98650.09;4493863;31;33854;-64
2023/04/15 09:50:06;;;;;;;1.50;1.00;;;;;;;11.19;61.33;98649.91;4489042;31;33776;-62
2023/04/15 09:52:41;;;;;;;3.92;2.12;;;;;;;11.28;61.74;98657.06;4481529;31;32766;-62
2023/04/15 09:55:12;;;;;;;2.00;0.90;;;;;;;10.79;65.63;98661.69;4485111;31;34443;-63
2023/04/15 09:57:41;;;;;;;0.40;0.40;;;;;;;10.89;66.46;98662.50;4489341;31;33327;-62
2023/04/15 10:00:10;;;;;;;1.17;1.08;;;;;;;10.84;66.58;98659.41;4483960;31;33813;-64
2023/04/15 10:02:41;;;;;;;1.85;1.20;;;;;;;10.65;66.49;98664.75;4483158;31;34592;-64
2023/04/15 10:05:11;;;;;;;1.12;1.02;;;;;;;11.03;64.35;98663.88;4493356;31;32122;-62
2023/04/15 10:07:41;;;;;;;1.40;0.93;;;;;;;10.98;63.54;98665.28;4485189;31;35077;-62
2023/04/15 10:10:10;;;;;;;0.70;0.68;;;;;;;11.25;63.44;98654.66;4487101;31;33671;-62
2023/04/15 10:12:40;;;;;;;0.55;0.55;;;;;;;11.21;62.48;98672.03;4483767;31;33913;-63
2023/04/15 10:15:15;;;;;;;0.98;0.60;;;;;;;10.98;63.30;98660.81;4492774;31;32545;-63
2023/04/15 10:17:44;;;;;;;2.45;0.75;;;;;;;11.50;63.14;98668.41;4492470;31;33167;-62
2023/04/15 10:20:13;;;;;;;0.73;0.73;;;;;;;11.16;63.44;98671.59;4487657;31;33763;-62
2023/04/15 10:22:44;;;;;;;1.02;0.75;;;;;;;11.16;63.45;98668.94;4480120;31;33037;-63
2023/04/15 10:25:14;;;;;;;3.65;1.62;;;;;;;11.47;64.46;98664.19;4487678;31;34127;-64
2023/04/15 10:27:43;;;;;;;0.70;0.70;;;;;;;11.21;64.65;98669.34;4481476;31;35008;-64
2023/04/15 10:30:12;;;;;;;1.58;1.37;;;;;;;11.03;67.17;98671.06;4481462;31;34513;-65
2023/04/15 10:32:41;;;;;;;0.98;0.60;;;;;;;11.33;65.55;98672.69;4482990;31;33822;-62
2023/04/15 10:35:10;;;;;;;1.25;0.95;;;;;;;10.54;67.81;98675.63;4483292;31;33666;-62
2023/04/15 10:37:39;;;;;;;1.35;0.68;;;;;;;10.40;69.53;98682.22;4491390;31;33548;-63
2023/04/15 10:40:31;;;;;;;1.00;0.82;;;;;;;10.68;67.96;98688.56;4497208;31;36841;-64
2023/04/15 10:43:01;;;;;;;0.90;0.90;;;;;;;10.98;66.71;98678.69;4497657;31;32907;-63
2023/04/15 10:45:37;;;;;;;0.93;0.85;;;;;;;11.03;66.38;98679.94;4484621;31;34319;-64
2023/04/15 10:48:07;;;;;;;0.43;0.43;;;;;;;10.79;66.79;98672.38;4489941;31;33339;-62
2023/04/15 10:50:38;;;;;;;0.77;0.65;;;;;;;10.89;67.15;98672.38;4492148;31;33847;-65
2023/04/15 10:53:09;;;;;;;1.30;0.75;;;;;;;11.07;66.96;98684.00;4490339;31;34251;-62
2023/04/15 10:55:38;;;;;;;0.93;0.62;;;;;;;11.43;65.53;98685.06;4484619;31;33625;-63
2023/04/15 10:58:08;;;;;;;2.17;0.68;;;;;;;10.73;68.46;98679.12;4496460;31;34366;-63
2023/04/15 11:00:38;;;;;;;0.90;0.68;;;;;;;10.31;69.61;98694.62;4487751;31;33623;-63
2023/04/15 11:03:08;;;;;;;0.90;0.80;;;;;;;10.47;70.57;98697.59;4493483;31;33775;-62
2023/04/15 11:05:40;;;;;;;0.95;0.82;;;;;;;10.65;70.28;98694.19;4495997;31;33403;-62
2023/04/15 11:08:10;;;;;;;1.60;0.65;;;;;;;10.22;70.34;98695.41;4494710;31;33161;-64
2023/04/15 11:10:39;;;;;;;0.62;0.62;;;;;;;10.77;69.11;98687.72;4492499;31;34071;-64
2023/04/15 11:13:10;;;;;;;3.90;3.12;;;;;;;11.13;69.74;98696.00;4491344;31;34296;-63
2023/04/15 11:15:41;;;;;;;1.77;1.45;;;;;;;11.02;68.52;98697.00;4490391;31;34501;-63
2023/04/15 11:18:11;;;;;;;1.35;0.62;;;;;;;11.38;67.49;98686.50;4497346;31;33677;-62
2023/04/15 11:20:46;;;;;;;0.62;0.62;;;;;;;11.57;65.74;98682.91;4493942;31;34278;-63
2023/04/15 11:23:18;;;;;;;0.63;0.63;;;;;;;10.92;67.52;98683.63;4495343;31;33664;-62
2023/04/15 11:25:47;;;;;;;0.80;0.75;;;;;;;11.11;68.83;98682.75;4495202;31;34589;-62
2023/04/15 11:28:16;;;;;;;0.80;0.62;;;;;;;11.64;65.41;98679.47;4494799;31;33971;-62
2023/04/15 11:30:45;;;;;;;1.30;0.98;;;;;;;10.92;67.22;98680.97;4486072;31;32564;-62
2023/04/15 11:33:14;;;;;;;0.77;0.77;;;;;;;10.48;69.65;98691.25;4492604;31;32939;-62
2023/04/15 11:35:42;;;;;;;0.30;0.30;;;;;;;10.51;69.52;98697.31;4497682;31;33607;-62
2023/04/15 11:38:12;;;;;;;0.60;0.60;;;;;;;11.01;68.86;98695.31;4491482;31;32998;-62
2023/04/15 11:40:42;;;;;;;1.37;0.93;;;;;;;10.67;67.62;98695.75;4489259;31;33118;-63
2023/04/15 11:43:22;;;;;;;0.80;0.80;;;;;;;10.38;68.80;98686.88;4492699;31;34577;-63
2023/04/15 11:46:01;;;;;;;0.65;0.65;;;;;;;11.19;67.48;98692.75;4494040;31;33911;-62